sensor_id;sensor_type;location;lat;lon;timestamp;pressure;altitude;pressure_sealevel;temperature;humidity
10940;BME280;5522;42.696;23.494;2023-02-23T00:00:37;53550.25;;;-139.68;100.00
10940;BME280;5522;42.696;23.494;2023-02-23T00:03:04;53570.38;;;-139.68;100.00
10940;BME280;5522;42.696;23.494;2023-02-23T00:05:35;53564.34;;;-139.68;100.00
10940;BME280;5522;42.696;23.494;2023-02-23T00:08:02;53562.31;;;-139.68;100.00
10940;BME280;5522;42.696;23.494;2023-02-23T00:10:29;53582.44;;;-139.68;100.00
10940;BME280;5522;42.696;23.494;2023-02-23T00:12:58;53556.28;;;-139.68;100.00
10940;BME280;5522;42.696;23.494;2023-02-23T00:15:27;53554.28;;;-139.68;100.00
10940;BME280;5522;42.696;23.494;2023-02-23T00:17:55;53574.38;;;-139.68;100.00
10940;BME280;5522;42.696;23.494;2023-02-23T00:20:23;53564.34;;;-139.68;100.00
10940;BME280;5522;42.696;23.494;2023-02-23T00:22:52;53590.47;;;-139.68;100.00
10940;BME280;5522;42.696;23.494;2023-02-23T00:25:20;53530.16;;;-139.68;100.00
10940;BME280;5522;42.696;23.494;2023-02-23T00:27:47;53566.34;;;-139.68;100.00
10940;BME280;5522;42.696;23.494;2023-02-23T00:30:15;53524.13;;;-139.68;100.00
10940;BME280;5522;42.696;23.494;2023-02-23T00:32:44;53540.22;;;-139.68;100.00
10940;BME280;5522;42.696;23.494;2023-02-23T00:35:11;53552.28;;;-139.68;100.00
10940;BME280;5522;42.696;23.494;2023-02-23T00:37:45;53602.53;;;-139.68;100.00
10940;BME280;5522;42.696;23.494;2023-02-23T00:40:13;53540.22;;;-139.68;100.00
10940;BME280;5522;42.696;23.494;2023-02-23T00:42:42;53574.38;;;-139.68;100.00
10940;BME280;5522;42.696;23.494;2023-02-23T00:45:10;53622.63;;;-139.68;100.00
10940;BME280;5522;42.696;23.494;2023-02-23T00:47:38;53552.28;;;-139.68;100.00
10940;BME280;5522;42.696;23.494;2023-02-23T00:50:10;53570.38;;;-139.68;100.00
10940;BME280;5522;42.696;23.494;2023-02-23T00:52:39;53554.28;;;-139.68;100.00
10940;BME280;5522;42.696;23.494;2023-02-23T00:55:08;53578.41;;;-139.68;100.00
10940;BME280;5522;42.696;23.494;2023-02-23T00:57:35;53568.34;;;-139.68;100.00
10940;BME280;5522;42.696;23.494;2023-02-23T01:07:47;53572.38;;;-139.68;100.00
10940;BME280;5522;42.696;23.494;2023-02-23T01:10:15;53602.53;;;-139.68;100.00
10940;BME280;5522;42.696;23.494;2023-02-23T01:12:46;53558.31;;;-139.68;100.00
10940;BME280;5522;42.696;23.494;2023-02-23T01:15:14;53532.16;;;-139.68;100.00
10940;BME280;5522;42.696;23.494;2023-02-23T01:17:41;53578.41;;;-139.68;100.00
10940;BME280;5522;42.696;23.494;2023-02-23T01:22:44;53570.38;;;-139.68;100.00
10940;BME280;5522;42.696;23.494;2023-02-23T01:25:14;53570.38;;;-139.68;100.00
10940;BME280;5522;42.696;23.494;2023-02-23T01:27:41;53570.38;;;-139.68;100.00
10940;BME280;5522;42.696;23.494;2023-02-23T01:30:10;53592.47;;;-139.68;100.00
10940;BME280;5522;42.696;23.494;2023-02-23T01:32:38;53546.25;;;-139.68;100.00
10940;BME280;5522;42.696;23.494;2023-02-23T01:35:07;53554.28;;;-139.68;100.00
10940;BME280;5522;42.696;23.494;2023-02-23T01:37:35;53594.50;;;-139.68;100.00
10940;BME280;5522;42.696;23.494;2023-02-23T01:40:06;53578.41;;;-139.68;100.00
10940;BME280;5522;42.696;23.494;2023-02-23T01:42:41;53560.31;;;-139.68;100.00
10940;BME280;5522;42.696;23.494;2023-02-23T01:45:26;53556.28;;;-139.68;100.00
10940;BME280;5522;42.696;23.494;2023-02-23T01:47:56;53514.09;;;-139.68;100.00
10940;BME280;5522;42.696;23.494;2023-02-23T01:50:28;53562.31;;;-139.68;100.00
10940;BME280;5522;42.696;23.494;2023-02-23T01:52:56;53572.38;;;-139.68;100.00
10940;BME280;5522;42.696;23.494;2023-02-23T01:55:25;53582.44;;;-139.68;100.00
10940;BME280;5522;42.696;23.494;2023-02-23T01:58:02;53564.34;;;-139.68;100.00
10940;BME280;5522;42.696;23.494;2023-02-23T02:00:30;53570.38;;;-139.68;100.00
10940;BME280;5522;42.696;23.494;2023-02-23T02:03:03;53570.38;;;-139.68;100.00
10940;BME280;5522;42.696;23.494;2023-02-23T02:05:34;53582.44;;;-139.68;100.00
10940;BME280;5522;42.696;23.494;2023-02-23T02:08:04;53566.34;;;-139.68;100.00
10940;BME280;5522;42.696;23.494;2023-02-23T02:10:35;53542.22;;;-139.68;100.00
10940;BME280;5522;42.696;23.494;2023-02-23T02:13:13;53550.25;;;-139.68;100.00
10940;BME280;5522;42.696;23.494;2023-02-23T02:16:01;53564.34;;;-139.68;100.00
10940;BME280;5522;42.696;23.494;2023-02-23T02:18:35;53576.41;;;-139.68;100.00
10940;BME280;5522;42.696;23.494;2023-02-23T02:24:43;53506.03;;;-139.68;100.00
10940;BME280;5522;42.696;23.494;2023-02-23T02:27:30;53534.19;;;-139.68;100.00
10940;BME280;5522;42.696;23.494;2023-02-23T02:30:20;53550.25;;;-139.68;100.00
10940;BME280;5522;42.696;23.494;2023-02-23T02:33:15;53570.38;;;-139.68;100.00
10940;BME280;5522;42.696;23.494;2023-02-23T02:36:18;53570.38;;;-139.68;100.00
10940;BME280;5522;42.696;23.494;2023-02-23T02:38:53;53584.44;;;-139.68;100.00
10940;BME280;5522;42.696;23.494;2023-02-23T02:41:35;53574.38;;;-139.68;100.00
10940;BME280;5522;42.696;23.494;2023-02-23T02:44:12;53560.31;;;-139.68;100.00
10940;BME280;5522;42.696;23.494;2023-02-23T02:46:44;53550.25;;;-139.68;100.00
10940;BME280;5522;42.696;23.494;2023-02-23T02:49:14;53544.22;;;-139.68;100.00
10940;BME280;5522;42.696;23.494;2023-02-23T02:51:51;53582.44;;;-139.68;100.00
10940;BME280;5522;42.696;23.494;2023-02-23T02:54:24;53546.25;;;-139.68;100.00
10940;BME280;5522;42.696;23.494;2023-02-23T02:56:56;53568.34;;;-139.68;100.00
10940;BME280;5522;42.696;23.494;2023-02-23T02:59:25;53508.06;;;-139.68;100.00
10940;BME280;5522;42.696;23.494;2023-02-23T03:02:19;53554.28;;;-139.68;100.00
10940;BME280;5522;42.696;23.494;2023-02-23T03:05:12;53564.34;;;-139.68;100.00
10940;BME280;5522;42.696;23.494;2023-02-23T03:08:04;53560.31;;;-139.68;100.00
10940;BME280;5522;42.696;23.494;2023-02-23T03:10:55;53560.31;;;-139.68;100.00
10940;BME280;5522;42.696;23.494;2023-02-23T03:13:49;53562.31;;;-139.68;100.00
10940;BME280;5522;42.696;23.494;2023-02-23T03:16:40;53576.41;;;-139.68;100.00
10940;BME280;5522;42.696;23.494;2023-02-23T03:19:33;53566.34;;;-139.68;100.00
10940;BME280;5522;42.696;23.494;2023-02-23T03:22:22;53546.25;;;-139.68;100.00
10940;BME280;5522;42.696;23.494;2023-02-23T03:25:12;53574.38;;;-139.68;100.00
10940;BME280;5522;42.696;23.494;2023-02-23T03:28:06;53568.34;;;-139.68;100.00
10940;BME280;5522;42.696;23.494;2023-02-23T03:30:59;53566.34;;;-139.68;100.00
10940;BME280;5522;42.696;23.494;2023-02-23T03:33:51;53544.22;;;-139.68;100.00
10940;BME280;5522;42.696;23.494;2023-02-23T03:36:41;53554.28;;;-139.68;100.00
10940;BME280;5522;42.696;23.494;2023-02-23T03:39:31;53522.13;;;-139.68;100.00
10940;BME280;5522;42.696;23.494;2023-02-23T03:42:20;53554.28;;;-139.68;100.00
10940;BME280;5522;42.696;23.494;2023-02-23T03:45:11;53554.28;;;-139.68;100.00
10940;BME280;5522;42.696;23.494;2023-02-23T03:47:58;53548.25;;;-139.68;100.00
10940;BME280;5522;42.696;23.494;2023-02-23T03:50:47;53532.16;;;-139.68;100.00
10940;BME280;5522;42.696;23.494;2023-02-23T03:53:39;53546.25;;;-139.68;100.00
10940;BME280;5522;42.696;23.494;2023-02-23T03:56:26;53550.25;;;-139.68;100.00
10940;BME280;5522;42.696;23.494;2023-02-23T03:59:14;53554.28;;;-139.68;100.00
10940;BME280;5522;42.696;23.494;2023-02-23T04:02:05;53556.28;;;-139.68;100.00
10940;BME280;5522;42.696;23.494;2023-02-23T04:04:53;53538.19;;;-139.68;100.00
10940;BME280;5522;42.696;23.494;2023-02-23T04:07:39;53524.13;;;-139.68;100.00
10940;BME280;5522;42.696;23.494;2023-02-23T04:10:25;53546.25;;;-139.68;100.00
10940;BME280;5522;42.696;23.494;2023-02-23T04:13:13;53554.28;;;-139.68;100.00
10940;BME280;5522;42.696;23.494;2023-02-23T04:15:51;53578.41;;;-139.68;100.00
10940;BME280;5522;42.696;23.494;2023-02-23T04:18:22;53546.25;;;-139.68;100.00
10940;BME280;5522;42.696;23.494;2023-02-23T04:20:50;53564.34;;;-139.68;100.00
10940;BME280;5522;42.696;23.494;2023-02-23T04:23:17;53542.22;;;-139.68;100.00
10940;BME280;5522;42.696;23.494;2023-02-23T04:25:44;53530.16;;;-139.68;100.00
10940;BME280;5522;42.696;23.494;2023-02-23T04:28:12;53558.31;;;-139.68;100.00
10940;BME280;5522;42.696;23.494;2023-02-23T04:30:38;53558.31;;;-139.68;100.00
10940;BME280;5522;42.696;23.494;2023-02-23T04:33:06;53580.41;;;-139.68;100.00
10940;BME280;5522;42.696;23.494;2023-02-23T04:35:34;53578.41;;;-139.68;100.00
10940;BME280;5522;42.696;23.494;2023-02-23T04:38:01;53590.47;;;-139.68;100.00
10940;BME280;5522;42.696;23.494;2023-02-23T04:40:28;53552.28;;;-139.68;100.00
10940;BME280;5522;42.696;23.494;2023-02-23T04:42:56;53584.44;;;-139.68;100.00
10940;BME280;5522;42.696;23.494;2023-02-23T04:45:23;53546.25;;;-139.68;100.00
10940;BME280;5522;42.696;23.494;2023-02-23T04:47:51;53552.28;;;-139.68;100.00
10940;BME280;5522;42.696;23.494;2023-02-23T04:50:18;53566.34;;;-139.68;100.00
10940;BME280;5522;42.696;23.494;2023-02-23T04:52:46;53562.31;;;-139.68;100.00
10940;BME280;5522;42.696;23.494;2023-02-23T04:55:17;53552.28;;;-139.68;100.00
10940;BME280;5522;42.696;23.494;2023-02-23T04:57:45;53592.47;;;-139.68;100.00
10940;BME280;5522;42.696;23.494;2023-02-23T05:00:13;53556.28;;;-139.68;100.00
10940;BME280;5522;42.696;23.494;2023-02-23T05:02:40;53552.28;;;-139.68;100.00
10940;BME280;5522;42.696;23.494;2023-02-23T05:05:08;53524.13;;;-139.68;100.00
10940;BME280;5522;42.696;23.494;2023-02-23T05:07:35;53548.25;;;-139.68;100.00
10940;BME280;5522;42.696;23.494;2023-02-23T05:10:07;53610.56;;;-139.68;100.00
10940;BME280;5522;42.696;23.494;2023-02-23T05:12:34;53566.34;;;-139.68;100.00
10940;BME280;5522;42.696;23.494;2023-02-23T05:15:01;53566.34;;;-139.68;100.00
10940;BME280;5522;42.696;23.494;2023-02-23T05:17:28;53546.25;;;-139.68;100.00
10940;BME280;5522;42.696;23.494;2023-02-23T05:19:55;53570.38;;;-139.68;100.00
10940;BME280;5522;42.696;23.494;2023-02-23T05:22:22;53554.28;;;-139.68;100.00
10940;BME280;5522;42.696;23.494;2023-02-23T05:24:48;53542.22;;;-139.68;100.00
10940;BME280;5522;42.696;23.494;2023-02-23T05:27:17;53546.25;;;-139.68;100.00
10940;BME280;5522;42.696;23.494;2023-02-23T05:29:43;53570.38;;;-139.68;100.00
10940;BME280;5522;42.696;23.494;2023-02-23T05:32:10;53562.31;;;-139.68;100.00
10940;BME280;5522;42.696;23.494;2023-02-23T05:34:37;53552.28;;;-139.68;100.00
10940;BME280;5522;42.696;23.494;2023-02-23T05:37:05;53600.53;;;-139.68;100.00
10940;BME280;5522;42.696;23.494;2023-02-23T05:39:32;53558.31;;;-139.68;100.00
10940;BME280;5522;42.696;23.494;2023-02-23T05:41:59;53552.28;;;-139.68;100.00
10940;BME280;5522;42.696;23.494;2023-02-23T05:44:27;53574.38;;;-139.68;100.00
10940;BME280;5522;42.696;23.494;2023-02-23T05:46:54;53598.50;;;-139.68;100.00
10940;BME280;5522;42.696;23.494;2023-02-23T05:49:21;53590.47;;;-139.68;100.00
10940;BME280;5522;42.696;23.494;2023-02-23T05:51:48;53564.34;;;-139.68;100.00
10940;BME280;5522;42.696;23.494;2023-02-23T05:54:15;53580.41;;;-139.68;100.00
10940;BME280;5522;42.696;23.494;2023-02-23T05:56:50;53554.28;;;-139.68;100.00
10940;BME280;5522;42.696;23.494;2023-02-23T05:59:17;53580.41;;;-139.68;100.00
10940;BME280;5522;42.696;23.494;2023-02-23T06:01:45;53608.56;;;-139.68;100.00
10940;BME280;5522;42.696;23.494;2023-02-23T06:04:12;53606.56;;;-139.68;100.00
10940;BME280;5522;42.696;23.494;2023-02-23T06:06:39;53634.69;;;-139.68;100.00
10940;BME280;5522;42.696;23.494;2023-02-23T06:09:06;53596.50;;;-139.68;94.96
10940;BME280;5522;42.696;23.494;2023-02-23T06:11:33;53626.66;;;-139.68;88.40
10940;BME280;5522;42.696;23.494;2023-02-23T06:14:00;53644.75;;;-139.68;82.03
10940;BME280;5522;42.696;23.494;2023-02-23T06:16:27;53664.84;;;-139.68;74.99
10940;BME280;5522;42.696;23.494;2023-02-23T06:18:56;53622.63;;;-139.68;61.47
10940;BME280;5522;42.696;23.494;2023-02-23T06:21:23;53642.72;;;-139.68;50.17
10940;BME280;5522;42.696;23.494;2023-02-23T06:23:49;53658.81;;;-139.68;45.75
10940;BME280;5522;42.696;23.494;2023-02-23T06:26:17;53662.84;;;-139.68;43.85
10940;BME280;5522;42.696;23.494;2023-02-23T06:28:44;53634.69;;;-139.68;43.17
10940;BME280;5522;42.696;23.494;2023-02-23T06:31:11;53670.88;;;-139.68;42.85
10940;BME280;5522;42.696;23.494;2023-02-23T06:33:38;53642.72;;;-139.68;43.79
10940;BME280;5522;42.696;23.494;2023-02-23T06:36:07;53711.09;;;-139.68;42.79
10940;BME280;5522;42.696;23.494;2023-02-23T06:38:34;53674.91;;;-139.68;43.70
10940;BME280;5522;42.696;23.494;2023-02-23T06:41:06;53699.03;;;-139.68;39.73
10940;BME280;5522;42.696;23.494;2023-02-23T06:43:33;53686.97;;;-139.68;37.84
10940;BME280;5522;42.696;23.494;2023-02-23T06:46:00;53719.13;;;-139.68;37.00
10940;BME280;5522;42.696;23.494;2023-02-23T06:48:27;53743.25;;;-139.68;36.53
10940;BME280;5522;42.696;23.494;2023-02-23T06:50:57;53713.09;;;-139.68;37.33
10940;BME280;5522;42.696;23.494;2023-02-23T06:53:25;53723.13;;;-139.68;37.52
10940;BME280;5522;42.696;23.494;2023-02-23T06:55:52;53684.94;;;-139.68;38.97
10940;BME280;5522;42.696;23.494;2023-02-23T06:58:18;53699.03;;;-139.68;38.02
10940;BME280;5522;42.696;23.494;2023-02-23T07:00:45;53731.19;;;-139.68;36.53
10940;BME280;5522;42.696;23.494;2023-02-23T07:03:12;53705.06;;;-139.68;36.31
10940;BME280;5522;42.696;23.494;2023-02-23T07:05:39;53749.28;;;-139.68;36.41
10940;BME280;5522;42.696;23.494;2023-02-23T07:08:06;53735.19;;;-139.68;36.56
10940;BME280;5522;42.696;23.494;2023-02-23T07:10:34;53717.13;;;-139.68;37.56
10940;BME280;5522;42.696;23.494;2023-02-23T07:13:01;53688.97;;;-139.68;36.93
10940;BME280;5522;42.696;23.494;2023-02-23T07:15:28;53719.13;;;-139.68;36.66
10940;BME280;5522;42.696;23.494;2023-02-23T07:17:55;53727.16;;;-139.68;35.43
10940;BME280;5522;42.696;23.494;2023-02-23T07:20:22;53727.16;;;-139.68;36.15
10940;BME280;5522;42.696;23.494;2023-02-23T07:22:48;53733.19;;;-139.68;36.49
10940;BME280;5522;42.696;23.494;2023-02-23T07:25:16;53747.25;;;-139.68;36.77
10940;BME280;5522;42.696;23.494;2023-02-23T07:27:45;53737.22;;;-139.68;36.63
10940;BME280;5522;42.696;23.494;2023-02-23T07:30:12;53737.22;;;-139.68;36.64
10940;BME280;5522;42.696;23.494;2023-02-23T07:32:39;53703.03;;;-139.68;35.67
10940;BME280;5522;42.696;23.494;2023-02-23T07:35:07;53809.59;;;-139.68;34.68
10940;BME280;5522;42.696;23.494;2023-02-23T07:37:34;53755.31;;;-139.68;34.49
10940;BME280;5522;42.696;23.494;2023-02-23T07:40:01;53701.03;;;-139.68;34.59
10940;BME280;5522;42.696;23.494;2023-02-23T07:42:28;53743.25;;;-139.68;34.71
10940;BME280;5522;42.696;23.494;2023-02-23T07:44:56;53751.28;;;-139.68;34.39
10940;BME280;5522;42.696;23.494;2023-02-23T07:47:23;53765.34;;;-139.68;34.32
10940;BME280;5522;42.696;23.494;2023-02-23T07:49:56;53739.22;;;-139.68;33.87
10940;BME280;5522;42.696;23.494;2023-02-23T07:52:24;53751.28;;;-139.68;34.07
10940;BME280;5522;42.696;23.494;2023-02-23T07:54:51;53747.25;;;-139.68;33.54
10940;BME280;5522;42.696;23.494;2023-02-23T07:57:18;53739.22;;;-139.68;33.76
10940;BME280;5522;42.696;23.494;2023-02-23T07:59:45;53727.16;;;-139.68;33.71
10940;BME280;5522;42.696;23.494;2023-02-23T08:02:13;53791.50;;;-139.68;32.98
10940;BME280;5522;42.696;23.494;2023-02-23T08:04:40;53745.25;;;-139.68;32.60
10940;BME280;5522;42.696;23.494;2023-02-23T08:07:08;53773.41;;;-139.68;33.01
10940;BME280;5522;42.696;23.494;2023-02-23T08:09:35;53773.41;;;-139.68;33.01
10940;BME280;5522;42.696;23.494;2023-02-23T08:12:03;53779.44;;;-139.68;32.28
10940;BME280;5522;42.696;23.494;2023-02-23T08:14:30;53765.34;;;-139.68;30.81
10940;BME280;5522;42.696;23.494;2023-02-23T08:16:56;53755.31;;;-139.68;31.09
10940;BME280;5522;42.696;23.494;2023-02-23T08:19:27;53787.47;;;-139.68;30.61
10940;BME280;5522;42.696;23.494;2023-02-23T08:21:54;53757.31;;;-139.68;30.46
10940;BME280;5522;42.696;23.494;2023-02-23T08:24:22;53759.31;;;-139.68;29.94
10940;BME280;5522;42.696;23.494;2023-02-23T08:26:48;53759.31;;;-139.68;30.08
10940;BME280;5522;42.696;23.494;2023-02-23T08:29:16;53783.44;;;-139.68;29.90
10940;BME280;5522;42.696;23.494;2023-02-23T08:31:43;53813.59;;;-139.68;28.62
10940;BME280;5522;42.696;23.494;2023-02-23T08:34:10;53787.47;;;-139.68;28.30
10940;BME280;5522;42.696;23.494;2023-02-23T08:36:38;53803.56;;;-139.68;28.30
10940;BME280;5522;42.696;23.494;2023-02-23T08:39:06;53747.25;;;-139.68;27.91
10940;BME280;5522;42.696;23.494;2023-02-23T08:41:34;53809.59;;;-139.68;27.06
10940;BME280;5522;42.696;23.494;2023-02-23T08:44:01;53799.53;;;-139.68;28.65
10940;BME280;5522;42.696;23.494;2023-02-23T08:46:28;53811.59;;;-139.68;28.30
10940;BME280;5522;42.696;23.494;2023-02-23T08:48:55;53815.63;;;-139.68;28.95
10940;BME280;5522;42.696;23.494;2023-02-23T08:51:23;53827.69;;;-139.68;28.63
10940;BME280;5522;42.696;23.494;2023-02-23T08:53:52;53811.59;;;-139.68;28.75
10940;BME280;5522;42.696;23.494;2023-02-23T08:56:21;53815.63;;;-139.68;28.95
10940;BME280;5522;42.696;23.494;2023-02-23T08:58:49;53817.63;;;-139.68;28.60
10940;BME280;5522;42.696;23.494;2023-02-23T09:01:19;53839.75;;;-139.68;27.90
10940;BME280;5522;42.696;23.494;2023-02-23T09:03:46;53767.38;;;-139.68;28.27
10940;BME280;5522;42.696;23.494;2023-02-23T09:06:16;53817.63;;;-139.68;28.01
10940;BME280;5522;42.696;23.494;2023-02-23T09:08:43;53807.56;;;-139.68;28.55
10940;BME280;5522;42.696;23.494;2023-02-23T09:11:12;53787.47;;;-139.68;27.89
10940;BME280;5522;42.696;23.494;2023-02-23T09:13:39;53777.41;;;-139.68;27.59
10940;BME280;5522;42.696;23.494;2023-02-23T09:16:07;53819.63;;;-139.68;27.28
10940;BME280;5522;42.696;23.494;2023-02-23T09:18:34;53831.69;;;-139.68;27.53
10940;BME280;5522;42.696;23.494;2023-02-23T09:21:02;53831.69;;;-139.68;28.08
10940;BME280;5522;42.696;23.494;2023-02-23T09:23:33;53823.66;;;-139.68;27.89
10940;BME280;5522;42.696;23.494;2023-02-23T09:26:02;53831.69;;;-139.68;26.88
10940;BME280;5522;42.696;23.494;2023-02-23T09:28:31;53813.59;;;-139.68;27.12
10940;BME280;5522;42.696;23.494;2023-02-23T09:31:03;53805.56;;;-139.68;27.25
10940;BME280;5522;42.696;23.494;2023-02-23T09:33:31;53805.56;;;-139.68;27.49
10940;BME280;5522;42.696;23.494;2023-02-23T09:35:58;53833.72;;;-139.68;26.17
10940;BME280;5522;42.696;23.494;2023-02-23T09:38:24;53867.88;;;-139.68;25.62
10940;BME280;5522;42.696;23.494;2023-02-23T09:40:53;53843.75;;;-139.68;26.21
10940;BME280;5522;42.696;23.494;2023-02-23T09:43:22;53831.69;;;-139.68;26.26
10940;BME280;5522;42.696;23.494;2023-02-23T09:46:00;53839.75;;;-139.68;25.44
10940;BME280;5522;42.696;23.494;2023-02-23T09:48:32;53803.56;;;-139.68;25.16
10940;BME280;5522;42.696;23.494;2023-02-23T09:51:00;53845.78;;;-139.68;24.87
10940;BME280;5522;42.696;23.494;2023-02-23T09:53:37;53863.88;;;-139.68;25.68
10940;BME280;5522;42.696;23.494;2023-02-23T09:56:10;53803.56;;;-139.68;24.82
10940;BME280;5522;42.696;23.494;2023-02-23T09:58:38;53843.75;;;-139.68;24.62
10940;BME280;5522;42.696;23.494;2023-02-23T10:01:42;53851.81;;;-139.68;25.10
10940;BME280;5522;42.696;23.494;2023-02-23T10:04:15;53833.72;;;-139.68;25.08
10940;BME280;5522;42.696;23.494;2023-02-23T10:06:50;53821.66;;;-139.68;25.34
10940;BME280;5522;42.696;23.494;2023-02-23T10:09:27;53831.69;;;-139.68;24.95
10940;BME280;5522;42.696;23.494;2023-02-23T10:12:03;53847.78;;;-139.68;25.57
10940;BME280;5522;42.696;23.494;2023-02-23T10:14:48;53853.81;;;-139.68;25.83
10940;BME280;5522;42.696;23.494;2023-02-23T10:17:27;53835.72;;;-139.68;25.39
10940;BME280;5522;42.696;23.494;2023-02-23T10:20:04;53879.94;;;-139.68;25.66
10940;BME280;5522;42.696;23.494;2023-02-23T10:22:36;53825.66;;;-139.68;25.97
10940;BME280;5522;42.696;23.494;2023-02-23T10:25:09;53863.88;;;-139.68;25.16
10940;BME280;5522;42.696;23.494;2023-02-23T10:27:40;53829.69;;;-139.68;25.50
10940;BME280;5522;42.696;23.494;2023-02-23T10:30:20;53837.72;;;-139.68;25.79
10940;BME280;5522;42.696;23.494;2023-02-23T10:32:52;53851.81;;;-139.68;25.35
10940;BME280;5522;42.696;23.494;2023-02-23T10:35:22;53888.00;;;-139.68;25.62
10940;BME280;5522;42.696;23.494;2023-02-23T10:37:50;53815.63;;;-139.68;25.40
10940;BME280;5522;42.696;23.494;2023-02-23T10:40:20;53843.75;;;-139.68;24.70
10940;BME280;5522;42.696;23.494;2023-02-23T10:42:49;53845.78;;;-139.68;24.28
10940;BME280;5522;42.696;23.494;2023-02-23T10:45:18;53871.91;;;-139.68;25.00
10940;BME280;5522;42.696;23.494;2023-02-23T10:47:52;53831.69;;;-139.68;24.13
10940;BME280;5522;42.696;23.494;2023-02-23T10:50:20;53829.69;;;-139.68;24.09
10940;BME280;5522;42.696;23.494;2023-02-23T10:52:54;53819.63;;;-139.68;23.74
10940;BME280;5522;42.696;23.494;2023-02-23T10:55:24;53843.75;;;-139.68;23.45
10940;BME280;5522;42.696;23.494;2023-02-23T10:58:02;53885.97;;;-139.68;23.98
10940;BME280;5522;42.696;23.494;2023-02-23T11:00:30;53871.91;;;-139.68;23.18
10940;BME280;5522;42.696;23.494;2023-02-23T11:03:00;53859.84;;;-139.68;22.53
10940;BME280;5522;42.696;23.494;2023-02-23T11:05:36;53837.72;;;-139.68;23.35
10940;BME280;5522;42.696;23.494;2023-02-23T11:08:17;53861.84;;;-139.68;24.23
10940;BME280;5522;42.696;23.494;2023-02-23T11:10:55;53888.00;;;-139.68;23.70
10940;BME280;5522;42.696;23.494;2023-02-23T11:13:22;53847.78;;;-139.68;25.19
10940;BME280;5522;42.696;23.494;2023-02-23T11:15:58;53869.91;;;-139.68;25.03
10940;BME280;5522;42.696;23.494;2023-02-23T11:18:27;53861.84;;;-139.68;25.43
10940;BME280;5522;42.696;23.494;2023-02-23T11:20:55;53883.97;;;-139.68;24.84
10940;BME280;5522;42.696;23.494;2023-02-23T11:23:24;53839.75;;;-139.68;27.07
10940;BME280;5522;42.696;23.494;2023-02-23T11:25:55;53855.81;;;-139.68;27.37
10940;BME280;5522;42.696;23.494;2023-02-23T11:28:28;53847.78;;;-139.68;28.72
10940;BME280;5522;42.696;23.494;2023-02-23T11:30:58;53839.75;;;-139.68;28.90
10940;BME280;5522;42.696;23.494;2023-02-23T11:33:30;53877.94;;;-139.68;29.83
10940;BME280;5522;42.696;23.494;2023-02-23T11:36:13;53861.84;;;-139.68;29.88
10940;BME280;5522;42.696;23.494;2023-02-23T11:38:41;53849.78;;;-139.68;30.09
10940;BME280;5522;42.696;23.494;2023-02-23T11:41:18;53904.06;;;-139.68;30.30
10940;BME280;5522;42.696;23.494;2023-02-23T11:43:47;53839.75;;;-139.68;31.25
10940;BME280;5522;42.696;23.494;2023-02-23T11:46:16;53863.88;;;-139.68;30.98
10940;BME280;5522;42.696;23.494;2023-02-23T11:48:49;53869.91;;;-139.68;30.94
10940;BME280;5522;42.696;23.494;2023-02-23T11:51:23;53904.06;;;-139.68;30.38
10940;BME280;5522;42.696;23.494;2023-02-23T11:53:51;53877.94;;;-139.68;30.03
10940;BME280;5522;42.696;23.494;2023-02-23T11:56:20;53823.66;;;-139.68;30.66
10940;BME280;5522;42.696;23.494;2023-02-23T11:58:49;53855.81;;;-139.68;30.72
10940;BME280;5522;42.696;23.494;2023-02-23T12:01:21;53871.91;;;-139.68;31.13
10940;BME280;5522;42.696;23.494;2023-02-23T12:03:52;53883.97;;;-139.68;31.22
10940;BME280;5522;42.696;23.494;2023-02-23T12:06:28;53839.75;;;-139.68;30.29
10940;BME280;5522;42.696;23.494;2023-02-23T12:09:00;53863.88;;;-139.68;31.07
10940;BME280;5522;42.696;23.494;2023-02-23T12:11:33;53879.94;;;-139.68;30.18
10940;BME280;5522;42.696;23.494;2023-02-23T12:14:08;53833.72;;;-139.68;30.84
10940;BME280;5522;42.696;23.494;2023-02-23T12:16:39;53934.22;;;-139.68;30.68
10940;BME280;5522;42.696;23.494;2023-02-23T12:19:20;53853.81;;;-139.68;30.15
10940;BME280;5522;42.696;23.494;2023-02-23T12:21:55;53845.78;;;-139.68;29.80
10940;BME280;5522;42.696;23.494;2023-02-23T12:24:30;53879.94;;;-139.68;29.65
10940;BME280;5522;42.696;23.494;2023-02-23T12:27:03;53875.94;;;-139.68;29.60
10940;BME280;5522;42.696;23.494;2023-02-23T12:29:42;53855.81;;;-139.68;30.44
10940;BME280;5522;42.696;23.494;2023-02-23T12:32:17;53845.78;;;-139.68;30.63
10940;BME280;5522;42.696;23.494;2023-02-23T12:34:48;53823.66;;;-139.68;29.44
10940;BME280;5522;42.696;23.494;2023-02-23T12:37:28;53843.75;;;-139.68;29.95
10940;BME280;5522;42.696;23.494;2023-02-23T12:39:57;53869.91;;;-139.68;29.88
10940;BME280;5522;42.696;23.494;2023-02-23T12:42:36;53833.72;;;-139.68;29.10
10940;BME280;5522;42.696;23.494;2023-02-23T12:45:06;53873.91;;;-139.68;29.44
10940;BME280;5522;42.696;23.494;2023-02-23T12:47:43;53827.69;;;-139.68;30.32
10940;BME280;5522;42.696;23.494;2023-02-23T12:50:22;53829.69;;;-139.68;30.37
10940;BME280;5522;42.696;23.494;2023-02-23T12:52:53;53859.84;;;-139.68;29.79
10940;BME280;5522;42.696;23.494;2023-02-23T12:55:30;53809.59;;;-139.68;30.02
10940;BME280;5522;42.696;23.494;2023-02-23T12:58:06;53837.72;;;-139.68;30.25
10940;BME280;5522;42.696;23.494;2023-02-23T13:00:46;53837.72;;;-139.68;29.44
10940;BME280;5522;42.696;23.494;2023-02-23T13:03:38;53851.81;;;-139.68;30.34
10940;BME280;5522;42.696;23.494;2023-02-23T13:06:10;53835.72;;;-139.68;29.21
10940;BME280;5522;42.696;23.494;2023-02-23T13:08:55;53839.75;;;-139.68;29.70
10940;BME280;5522;42.696;23.494;2023-02-23T13:11:36;53859.84;;;-139.68;29.72
10940;BME280;5522;42.696;23.494;2023-02-23T13:14:15;53837.72;;;-139.68;30.17